createdAt,value
2023-02-14T00:07:32.888Z,102255.47
2023-02-14T00:17:38.243Z,102265.34
2023-02-14T00:27:41.816Z,102256.47
2023-02-14T00:37:47.056Z,102255.97
2023-02-14T00:47:50.174Z,102283.69
2023-02-14T00:57:54.665Z,102278.31
2023-02-14T01:07:57.744Z,102270.81
2023-02-14T01:18:02.327Z,102263.34
2023-02-14T01:28:05.784Z,102252.28
2023-02-14T01:38:10.340Z,102252.78
2023-02-14T01:48:13.871Z,102241.97
2023-02-14T01:58:21.572Z,102242.78
2023-02-14T02:08:25.224Z,102250.97
2023-02-14T02:18:38.276Z,102235.00
2023-02-14T02:29:16.622Z,102221.69
2023-02-14T02:39:40.203Z,102226.00
2023-02-14T02:50:04.436Z,102214.03
2023-02-14T03:00:11.418Z,102207.72
2023-02-14T03:10:16.369Z,102214.19
2023-02-14T03:20:23.840Z,102219.06
2023-02-14T03:30:31.461Z,102214.28
2023-02-14T03:40:39.615Z,102199.87
2023-02-14T03:50:44.567Z,102212.44
2023-02-14T04:00:49.581Z,102218.38
2023-02-14T04:10:53.334Z,102219.16
2023-02-14T04:20:58.018Z,102205.09
2023-02-14T04:31:02.912Z,102219.53
2023-02-14T04:41:07.707Z,102223.97
2023-02-14T04:51:10.840Z,102226.09
2023-02-14T05:01:15.482Z,102218.91
2023-02-14T05:11:18.627Z,102214.16
2023-02-14T05:21:23.478Z,102212.44
2023-02-14T05:31:26.746Z,102216.34
2023-02-14T05:41:31.327Z,102222.97
2023-02-14T05:51:34.473Z,102218.62
2023-02-14T06:01:38.918Z,102220.00
2023-02-14T06:11:42.033Z,102228.50
2023-02-14T06:21:46.514Z,102233.06
2023-02-14T06:31:49.804Z,102261.31
2023-02-14T06:41:54.371Z,102273.81
2023-02-14T06:51:57.554Z,102277.13
2023-02-14T07:02:02.387Z,102296.38
2023-02-14T07:12:05.743Z,102290.75
2023-02-14T07:22:10.195Z,102282.47
2023-02-14T07:32:13.629Z,102283.12
2023-02-14T07:42:18.458Z,102289.84
2023-02-14T07:52:21.612Z,102285.66
2023-02-14T08:02:26.098Z,102288.44
2023-02-14T08:12:46.767Z,102298.78
2023-02-14T08:22:51.208Z,102304.81
2023-02-14T08:32:54.938Z,102301.13
2023-02-14T08:42:59.537Z,102298.16
2023-02-14T08:53:02.711Z,102305.78
2023-02-14T09:03:07.182Z,102306.88
2023-02-14T09:13:10.383Z,102299.72
2023-02-14T09:23:14.942Z,102298.16
2023-02-14T09:33:18.304Z,102297.25
2023-02-14T09:43:26.066Z,102299.16
2023-02-14T09:53:31.374Z,102306.44
2023-02-14T10:03:48.599Z,102306.41
2023-02-14T10:13:54.253Z,102297.97
2023-02-14T10:24:03.232Z,102288.59
2023-02-14T10:34:10.206Z,102293.75
2023-02-14T10:44:25.677Z,102279.84
2023-02-14T10:54:38.104Z,102275.19
2023-02-14T11:04:42.735Z,102248.06
2023-02-14T11:14:46.476Z,102241.72
2023-02-14T11:24:51.494Z,102252.94
2023-02-14T11:34:59.140Z,102243.16
2023-02-14T11:45:05.235Z,102237.66
2023-02-14T11:55:08.643Z,102241.75
2023-02-14T12:05:20.829Z,102237.69
2023-02-14T12:15:36.674Z,102233.25
2023-02-14T12:25:44.716Z,102234.06
2023-02-14T12:35:55.143Z,102209.63
2023-02-14T12:46:16.377Z,102202.09
2023-02-14T12:56:28.445Z,102192.69
2023-02-14T13:06:34.866Z,102189.22
2023-02-14T13:16:42.774Z,102167.12
2023-02-14T13:26:53.783Z,102178.91
2023-02-14T13:36:58.651Z,102172.81
2023-02-14T13:47:03.236Z,102161.19
2023-02-14T13:57:28.282Z,102159.78
2023-02-14T14:07:33.157Z,102152.75
2023-02-14T14:17:37.552Z,102151.94
2023-02-14T14:27:45.206Z,102171.69
2023-02-14T14:37:50.629Z,102156.41
2023-02-14T14:47:57.146Z,102150.56
2023-02-14T14:58:04.088Z,102151.41
2023-02-14T15:08:23.867Z,102148.09
2023-02-14T15:18:27.211Z,102154.09
2023-02-14T15:28:33.998Z,102150.31
2023-02-14T15:38:39.626Z,102148.91
2023-02-14T15:48:45.326Z,102145.25
2023-02-14T15:58:49.526Z,102158.56
2023-02-14T16:08:57.109Z,102166.44
2023-02-14T16:19:01.747Z,102173.63
2023-02-14T16:29:08.421Z,102177.03
2023-02-14T16:39:15.913Z,102188.12
2023-02-14T16:49:22.989Z,102206.78
2023-02-14T16:59:26.179Z,102205.03
2023-02-14T17:09:33.330Z,102208.16
2023-02-14T17:19:36.483Z,102226.53
2023-02-14T17:29:41.832Z,102232.00
2023-02-14T17:39:44.977Z,102229.69
2023-02-14T17:49:49.604Z,102223.84
2023-02-14T17:59:53.693Z,102228.72
2023-02-14T18:09:58.285Z,102234.84
2023-02-14T18:20:01.472Z,102222.97
2023-02-14T18:30:08.007Z,102223.19
2023-02-14T18:40:16.392Z,102215.66
2023-02-14T18:50:21.909Z,102218.72
2023-02-14T19:00:27.145Z,102223.75
2023-02-14T19:10:32.127Z,102225.53
2023-02-14T19:20:36.018Z,102231.41
2023-02-14T19:30:40.890Z,102214.38
2023-02-14T19:40:45.843Z,102221.81
2023-02-14T19:50:51.177Z,102229.22
2023-02-14T20:00:58.785Z,102235.84
2023-02-14T20:11:04.512Z,102234.59
2023-02-14T20:21:08.557Z,102240.37
2023-02-14T20:31:16.055Z,102243.91
2023-02-14T20:41:19.507Z,102241.31
2023-02-14T20:51:24.475Z,102249.66
2023-02-14T21:01:27.815Z,102242.28
2023-02-14T21:11:34.385Z,102239.53
2023-02-14T21:21:38.648Z,102232.84
2023-02-14T21:31:43.835Z,102243.91
2023-02-14T21:41:47.255Z,102251.84
2023-02-14T21:51:52.476Z,102247.63
2023-02-14T22:01:56.049Z,102245.31
2023-02-14T22:12:00.847Z,102254.63
2023-02-14T22:22:04.404Z,102254.63
2023-02-14T22:32:09.497Z,102261.34
2023-02-14T22:42:12.722Z,102255.47
2023-02-14T22:52:17.311Z,102263.72
2023-02-14T23:02:20.438Z,102269.47
2023-02-14T23:12:42.578Z,102261.25
2023-02-14T23:22:45.743Z,102253.69
2023-02-14T23:32:50.236Z,102264.88
2023-02-14T23:42:54.828Z,102262.12
2023-02-14T23:52:59.526Z,102263.66
